Kona International At Keahole, HI

1:39 AM HST on December 03, 2016 (GMT -1000)
Kona International At Keahole | | Change Station
Active Advisory: Flash Flood Watch

Elev 43 ft 19.74 °N, 156.05 °W | Updated 1 hour ago

Clear
Clear
75 °F
Feels Like 75 °F
N
5
Wind Variable Wind from ENE

Today
High -- | Low -- °F
--% Chance of Precip.
Yesterday
High -- | Low -- °F
Precip. -- in
Pressure 29.89 in
Visibility 10.0 miles
Clouds Clear
Dew Point 67 °F
Humidity 76%
Rainfall 0.00 in
Snow Depth Not available.
6:44 AM 5:44 PM
Waxing Crescent, 14% visible
METAR PHKO 030953Z AUTO 06004KT 10SM CLR 24/19 A2989 RMK AO2 SLP121 T02390194 402610206 TSNO
Pressure 29.89 in
Visibility 10.0 miles
Clouds Clear
Dew Point 67 °F
Humidity 76%
Rainfall 0.00 in
Snow Depth Not available.
6:44 AM 5:44 PM
Waxing Crescent, 14% visible
METAR PHKO 030953Z AUTO 06004KT 10SM CLR 24/19 A2989 RMK AO2 SLP121 T02390194 402610206 TSNO

10-Day Weather Forecast

Almanac

Astronomy

Dec. 03, 2016 Rise Set
Actual Time
Civil Twilight
Nautical Twilight
Astronomical Twilight
Moon
Length of Visible Light
Length of Day
Tomorrow will be .
, % of the Moon is Illuminated

Today's Extremes

State Highs State Lows

Community

WunderPhotos

Upload Photos

1,955,431 photos uploaded!

WunderBlog® & News

Nearby

Air Quality

  Air Quality AQ Index Pollutant
Not available.

Snow Depth

Station Depth Elevation

Earthquake Activity

City Distance Mag. Time & Date
Minimum magnitude displayed is 2.5.

Coastal Water Temperatures

Place Temperature

Stations

Nearby Weather Stations

Station Location Temp. Windchill Dew Point Humidity Wind Precip. Elev Updated Type
                   

Watches & Warnings

Flash Flood Watch
Issued: 3:28 PM HST Dec. 2, 2016 – National Weather Service

... Flash Flood Watch remains in effect through Sunday afternoon...

The Flash Flood Watch continues for

* all Hawaiian islands.

* Through Sunday afternoon

* the combination of deep tropical moisture and an unstable
airmass will result in potential for heavy showers and
thunderstorms across the state through the weekend.

* Rainfall rates from heavier downpours and thunderstorms could
cause streams to quickly overflow their banks... leading to
flash flooding.

Precautionary/preparedness actions...

A Flash Flood Watch means that conditions may develop that lead
to flash flooding. Flash flooding is very dangerous.

You should monitor later forecasts and be prepared to take action
should flash flood warnings be issued. Campers and hikers should
consider postponing their Outing until the weather is better.
High streams... as well as streams overflowing their banks... could
make conditions very dangerous.



Foster